Time;durP1;ratioP1;P1;durP2;ratioP2;P2;SDS_P1;SDS_P2;PMS_P1;PMS_P2;Temp;Humidity;BMP_temperature;BMP_pressure;BME280_temperature;BME280_humidity;BME280_pressure;Samples;Min_cycle;Max_cycle;Signal;HPM_P1;HPM_P2
2023/06/01 00:00:29;;;;;;;6.55;5.95;;;;;;;14.95;89.08;95060.75;5077517;28;20196;-73
2023/06/01 00:02:56;;;;;;;7.68;6.05;;;;;;;14.97;88.85;95059.22;5076926;28;20201;-73
2023/06/01 00:05:23;;;;;;;7.63;6.15;;;;;;;15.01;88.76;95062.03;5077874;28;20205;-73
2023/06/01 00:08:32;;;;;;;6.53;5.93;;;;;;;14.98;88.47;95057.22;5078057;28;20190;-73
2023/06/01 00:10:59;;;;;;;10.00;6.88;;;;;;;14.97;88.71;95053.66;5077206;28;20307;-73
2023/06/01 00:13:26;;;;;;;7.28;6.50;;;;;;;14.98;88.81;95049.69;5078403;28;20197;-73
2023/06/01 00:15:54;;;;;;;7.60;6.65;;;;;;;14.96;89.40;95043.75;5077140;28;20570;-73
2023/06/01 00:18:22;;;;;;;8.63;6.95;;;;;;;14.97;89.76;95048.09;5077857;28;20197;-73
2023/06/01 00:20:48;;;;;;;7.65;6.75;;;;;;;14.96;89.53;95054.84;5077763;28;20197;-73
2023/06/01 00:23:19;;;;;;;9.38;7.55;;;;;;;14.96;89.77;95048.47;5076517;28;20274;-73
2023/06/01 00:25:48;;;;;;;7.30;6.40;;;;;;;14.94;89.15;95051.63;5076759;28;20193;-73
2023/06/01 00:28:14;;;;;;;6.60;5.90;;;;;;;14.90;89.04;95043.28;5077366;28;20601;-73
2023/06/01 00:30:41;;;;;;;7.30;6.60;;;;;;;14.87;88.81;95046.81;5076542;28;20213;-73
2023/06/01 00:33:10;;;;;;;7.22;5.68;;;;;;;14.84;88.82;95050.34;5076552;28;20258;-73
2023/06/01 00:35:37;;;;;;;6.45;5.85;;;;;;;14.84;88.50;95047.56;5076608;28;20197;-73
2023/06/01 00:38:06;;;;;;;7.30;5.95;;;;;;;14.84;88.83;95046.78;5076767;28;20201;-73
2023/06/01 00:40:34;;;;;;;6.82;6.13;;;;;;;14.83;88.69;95047.94;5077447;28;20272;-73
2023/06/01 00:43:02;;;;;;;7.30;6.38;;;;;;;14.69;88.31;95049.38;5077467;28;20181;-73
2023/06/01 00:45:29;;;;;;;6.53;5.93;;;;;;;14.61;88.02;95052.47;5077576;28;20193;-73
2023/06/01 00:47:56;;;;;;;8.23;6.22;;;;;;;14.59;88.18;95054.81;5076789;28;20219;-73
2023/06/01 00:50:24;;;;;;;6.45;5.90;;;;;;;14.55;88.10;95052.00;5077207;28;20205;-73
2023/06/01 00:52:53;;;;;;;7.43;5.75;;;;;;;14.54;88.27;95050.41;5076354;28;20231;-73
2023/06/01 00:55:21;;;;;;;6.75;5.82;;;;;;;14.55;88.50;95048.44;5076186;28;20270;-73
2023/06/01 00:57:50;;;;;;;6.85;6.15;;;;;;;14.54;88.55;95055.97;5077136;28;20208;-73
2023/06/01 01:00:18;;;;;;;7.07;6.47;;;;;;;14.58;89.07;95059.56;5076745;28;20181;-73
2023/06/01 01:02:48;;;;;;;6.93;6.20;;;;;;;14.60;89.22;95054.47;5076926;28;20192;-73
2023/06/01 01:05:15;;;;;;;6.90;5.93;;;;;;;14.62;89.74;95054.84;5076941;28;20189;-73
2023/06/01 01:07:59;;;;;;;8.80;6.82;;;;;;;14.61;89.94;95049.69;5076577;28;20594;-73
2023/06/01 01:10:34;;;;;;;8.95;6.75;;;;;;;14.60;90.43;95051.69;5076150;28;20201;-73
2023/06/01 01:13:08;;;;;;;8.52;6.53;;;;;;;14.61;90.38;95050.50;5076710;28;20262;-73
2023/06/01 01:15:42;;;;;;;8.90;7.53;;;;;;;14.64;90.55;95062.81;5075886;28;20236;-73
2023/06/01 01:18:19;;;;;;;8.85;7.57;;;;;;;14.63;90.10;95059.25;5076645;28;20242;-73
2023/06/01 01:20:52;;;;;;;9.80;8.80;;;;;;;14.62;90.30;95063.19;5075792;28;20236;-73
2023/06/01 01:23:41;;;;;;;9.88;8.88;;;;;;;14.60;90.44;95064.75;5076960;28;20275;-73
2023/06/01 01:26:39;;;;;;;9.73;8.73;;;;;;;14.56;90.45;95058.34;5076250;28;20185;-73
2023/06/01 01:29:10;;;;;;;9.93;8.68;;;;;;;14.56;90.97;95059.16;5074963;28;20213;-73
2023/06/01 01:31:39;;;;;;;9.82;8.90;;;;;;;14.55;90.84;95059.53;5076088;28;20588;-73
2023/06/01 01:34:07;;;;;;;12.32;9.18;;;;;;;14.53;90.68;95059.13;5076071;28;20593;-73
2023/06/01 01:36:35;;;;;;;10.57;9.50;;;;;;;14.55;91.00;95062.31;5076279;28;20262;-73
2023/06/01 01:39:03;;;;;;;10.60;9.55;;;;;;;14.51;90.93;95059.50;5075349;28;20295;-73
2023/06/01 01:41:31;;;;;;;11.00;9.90;;;;;;;14.49;90.66;95069.34;5075458;28;20189;-73
2023/06/01 01:43:59;;;;;;;10.32;9.32;;;;;;;14.45;90.92;95060.97;5076143;28;20204;-73
2023/06/01 01:46:29;;;;;;;10.85;9.70;;;;;;;14.44;90.39;95060.16;5075328;28;20216;-73
2023/06/01 01:49:03;;;;;;;11.15;9.75;;;;;;;14.42;90.54;95061.75;5074837;28;20201;-73
2023/06/01 01:51:37;;;;;;;10.88;9.77;;;;;;;14.42;90.67;95070.06;5074978;28;20217;-73
2023/06/01 01:54:06;;;;;;;10.88;9.18;;;;;;;14.39;91.16;95068.03;5075533;28;20292;-73
2023/06/01 01:56:35;;;;;;;10.93;9.15;;;;;;;14.38;91.25;95064.47;5075643;28;20227;-73
2023/06/01 01:59:04;;;;;;;12.10;9.93;;;;;;;14.37;91.04;95064.84;5074975;28;20263;-73
2023/06/01 02:01:34;;;;;;;9.98;8.98;;;;;;;14.38;90.77;95067.25;5075137;28;20200;-73
2023/06/01 02:04:02;;;;;;;10.27;9.18;;;;;;;14.38;90.91;95061.69;5075162;28;20197;-73
2023/06/01 02:06:29;;;;;;;10.07;9.07;;;;;;;14.40;90.75;95070.44;5074593;28;20283;-73
2023/06/01 02:08:56;;;;;;;10.25;9.20;;;;;;;14.40;90.66;95066.84;5074838;28;20227;-73
2023/06/01 02:11:23;;;;;;;10.73;9.23;;;;;;;14.39;90.78;95071.63;5075598;28;20224;-73
2023/06/01 02:13:51;;;;;;;10.75;9.65;;;;;;;14.37;90.96;95065.63;5074974;28;20246;-73
2023/06/01 02:16:19;;;;;;;12.55;10.02;;;;;;;14.33;90.94;95070.34;5075343;28;20658;-73
2023/06/01 02:18:47;;;;;;;11.77;10.27;;;;;;;14.30;90.71;95073.06;5074482;28;20288;-73
2023/06/01 02:21:16;;;;;;;11.18;10.05;;;;;;;14.28;90.85;95069.88;5073917;28;20643;-73
2023/06/01 02:23:43;;;;;;;10.43;9.32;;;;;;;14.24;90.96;95080.94;5075418;28;20209;-73
2023/06/01 02:26:11;;;;;;;10.20;9.10;;;;;;;14.22;90.93;95080.50;5074923;28;20197;-73
2023/06/01 02:28:38;;;;;;;11.32;10.02;;;;;;;14.17;91.13;95076.09;5074528;28;20197;-73
2023/06/01 02:31:06;;;;;;;10.75;9.23;;;;;;;14.14;90.80;95076.03;5074315;28;20221;-73
2023/06/01 02:33:33;;;;;;;10.20;9.15;;;;;;;14.10;91.08;95070.44;5074578;28;20197;-73
2023/06/01 02:36:03;;;;;;;9.70;8.70;;;;;;;14.08;91.41;95072.78;5075473;28;20182;-73
2023/06/01 02:38:30;;;;;;;11.02;9.90;;;;;;;14.12;91.47;95068.06;5074480;28;20576;-73
2023/06/01 02:40:57;;;;;;;11.88;8.68;;;;;;;14.13;91.50;95074.44;5075113;28;20189;-73
2023/06/01 02:43:23;;;;;;;10.55;9.43;;;;;;;14.09;91.09;95077.16;5075315;28;20208;-73
2023/06/01 02:45:51;;;;;;;10.68;9.35;;;;;;;14.09;91.38;95079.13;5075255;28;20185;-73
2023/06/01 02:48:19;;;;;;;9.77;8.27;;;;;;;14.05;91.38;95073.56;5075027;28;20197;-73
2023/06/01 02:50:47;;;;;;;9.55;8.65;;;;;;;14.00;91.08;95073.88;5074837;28;20209;-73
2023/06/01 02:53:20;;;;;;;8.88;7.93;;;;;;;13.97;91.33;95078.16;5074778;28;20605;-73
2023/06/01 02:55:48;;;;;;;9.10;8.10;;;;;;;13.96;91.52;95076.59;5074818;28;20197;-73
2023/06/01 02:58:17;;;;;;;8.80;8.00;;;;;;;13.93;91.16;95077.31;5075306;28;20670;-73
2023/06/01 03:00:47;;;;;;;8.35;7.55;;;;;;;13.94;91.36;95081.72;5074313;28;20197;-74
2023/06/01 03:03:14;;;;;;;10.05;8.48;;;;;;;13.86;91.09;95073.66;5074124;28;20221;-72
2023/06/01 03:05:42;;;;;;;8.82;7.88;;;;;;;13.83;91.62;95080.72;5074794;28;20211;-72
2023/06/01 03:08:11;;;;;;;8.82;7.95;;;;;;;13.82;91.47;95073.59;5074308;28;20288;-72
2023/06/01 03:10:40;;;;;;;9.13;8.05;;;;;;;13.76;91.62;95079.84;5073984;28;20671;-72
2023/06/01 03:13:08;;;;;;;8.93;8.13;;;;;;;13.63;91.43;95077.28;5074907;28;20193;-72
2023/06/01 03:15:37;;;;;;;9.07;8.18;;;;;;;13.66;92.04;95084.84;5074418;28;20193;-75
2023/06/01 03:18:05;;;;;;;8.70;7.90;;;;;;;13.73;92.34;95081.41;5075204;28;20193;-74
2023/06/01 03:20:32;;;;;;;9.40;8.50;;;;;;;13.75;92.42;95083.78;5075106;28;20192;-74
2023/06/01 03:23:03;;;;;;;8.70;7.82;;;;;;;13.75;92.18;95090.13;5074381;28;20240;-73
2023/06/01 03:25:33;;;;;;;9.32;8.38;;;;;;;13.75;92.30;95084.59;5074895;28;20228;-73
2023/06/01 03:28:08;;;;;;;9.25;8.35;;;;;;;13.74;92.01;95085.75;5074753;28;20207;-74
2023/06/01 03:30:37;;;;;;;10.38;8.80;;;;;;;13.71;91.85;95095.63;5073681;28;20216;-73
2023/06/01 03:33:08;;;;;;;9.52;8.63;;;;;;;13.75;92.16;95087.34;5075686;28;20209;-74
2023/06/01 03:35:38;;;;;;;9.90;8.70;;;;;;;13.79;92.28;95087.41;5077921;28;20180;-74
2023/06/01 03:38:08;;;;;;;9.73;8.75;;;;;;;13.82;92.25;95075.56;5077573;28;20648;-74
2023/06/01 03:40:38;;;;;;;10.77;9.23;;;;;;;13.84;92.52;95084.34;5078631;28;20206;-74
2023/06/01 03:43:06;;;;;;;10.05;9.05;;;;;;;13.86;92.24;95079.19;5078498;28;20192;-75
2023/06/01 03:45:33;;;;;;;9.88;8.85;;;;;;;13.88;92.49;95085.19;5077601;28;20220;-74
2023/06/01 03:48:01;;;;;;;10.30;9.30;;;;;;;13.81;92.22;95094.19;5077903;28;20197;-74
2023/06/01 03:50:29;;;;;;;10.48;9.40;;;;;;;13.82;92.80;95094.97;5078305;28;20200;-74
2023/06/01 03:52:55;;;;;;;10.93;9.77;;;;;;;13.80;92.41;95098.13;5077426;28;20205;-73
2023/06/01 03:55:22;;;;;;;10.35;9.15;;;;;;;13.81;92.71;95096.97;5077953;28;20208;-73
2023/06/01 03:57:50;;;;;;;9.65;8.70;;;;;;;13.88;92.75;95096.28;5077052;28;20597;-74
2023/06/01 04:00:19;;;;;;;12.00;9.85;;;;;;;13.90;92.99;95097.47;5077375;28;20254;-73
2023/06/01 04:02:53;;;;;;;10.93;9.77;;;;;;;13.92;92.84;95108.22;5077858;28;20186;-74
2023/06/01 04:05:21;;;;;;;11.43;10.07;;;;;;;13.90;92.72;95103.03;5078074;28;20189;-73
2023/06/01 04:07:49;;;;;;;11.02;9.88;;;;;;;13.94;92.86;95101.13;5076895;28;20197;-74
2023/06/01 04:10:16;;;;;;;12.30;10.35;;;;;;;13.97;92.67;95102.34;5078109;28;20254;-74
2023/06/01 04:12:44;;;;;;;10.68;9.32;;;;;;;13.97;92.74;95103.13;5077036;28;20251;-73
2023/06/01 04:15:12;;;;;;;9.85;8.75;;;;;;;13.94;91.81;95094.75;5076687;28;20213;-73
2023/06/01 04:17:41;;;;;;;9.07;8.18;;;;;;;13.91;92.03;95101.06;5076731;28;20222;-73
2023/06/01 04:20:11;;;;;;;9.07;8.18;;;;;;;13.92;92.01;95099.91;5078118;28;20194;-73
2023/06/01 04:22:38;;;;;;;7.82;7.10;;;;;;;13.92;91.49;95109.00;5076499;28;20228;-74
2023/06/01 04:25:08;;;;;;;8.67;7.83;;;;;;;13.92;91.52;95103.47;5076059;28;20431;-73
2023/06/01 04:27:37;;;;;;;8.25;6.90;;;;;;;13.93;91.18;95104.25;5076751;28;20434;-74
2023/06/01 04:30:08;;;;;;;8.88;7.53;;;;;;;13.97;91.64;95105.91;5077013;28;20621;-75
2023/06/01 04:32:37;;;;;;;9.80;8.80;;;;;;;14.02;92.00;95107.56;5077695;28;20216;-76
2023/06/01 04:35:09;;;;;;;9.93;8.88;;;;;;;14.03;92.07;95111.16;5077912;28;20181;-74
2023/06/01 04:37:39;;;;;;;10.63;9.48;;;;;;;14.05;92.04;95108.78;5076769;28;20208;-75
2023/06/01 04:40:09;;;;;;;11.68;10.48;;;;;;;14.03;91.82;95116.69;5076922;28;20614;-74
2023/06/01 04:42:38;;;;;;;10.57;9.48;;;;;;;14.02;91.97;95115.91;5077757;28;20193;-74
2023/06/01 04:45:07;;;;;;;10.68;9.57;;;;;;;14.03;92.16;95117.47;5075765;28;20182;-74
2023/06/01 04:47:37;;;;;;;13.18;10.07;;;;;;;14.03;92.38;95119.47;5077070;28;20625;-74
2023/06/01 04:50:10;;;;;;;11.30;9.95;;;;;;;14.01;92.42;95119.03;5077425;28;20216;-74
2023/06/01 04:52:38;;;;;;;11.68;10.50;;;;;;;14.01;92.92;95127.34;5076436;28;20320;-73
2023/06/01 04:55:06;;;;;;;11.68;10.57;;;;;;;14.04;92.97;95123.81;5077139;28;20190;-74
2023/06/01 04:57:35;;;;;;;11.85;10.65;;;;;;;14.06;93.54;95124.25;5076018;28;20193;-74
2023/06/01 05:00:04;;;;;;;11.73;10.52;;;;;;;14.09;93.81;95124.31;5077039;28;20200;-74
2023/06/01 05:02:30;;;;;;;10.10;9.18;;;;;;;14.15;93.95;95131.13;5077081;28;20189;-74
2023/06/01 05:04:58;;;;;;;10.82;9.80;;;;;;;14.17;93.23;95119.66;5076073;28;20196;-73
2023/06/01 05:07:29;;;;;;;11.35;10.15;;;;;;;14.18;93.22;95119.28;5075795;28;20201;-75
2023/06/01 05:09:57;;;;;;;12.73;11.10;;;;;;;14.23;93.41;95117.34;5077074;28;20189;-74
2023/06/01 05:12:24;;;;;;;11.98;10.75;;;;;;;14.22;93.36;95124.88;5076927;28;20216;-74
2023/06/01 05:14:51;;;;;;;12.20;10.38;;;;;;;14.26;93.37;95120.19;5075918;28;20201;-73
2023/06/01 05:17:19;;;;;;;11.95;10.68;;;;;;;14.24;92.98;95127.28;5076728;28;20209;-73
2023/06/01 05:19:49;;;;;;;14.23;11.20;;;;;;;14.24;92.58;95124.53;5076233;28;20262;-73
2023/06/01 05:22:16;;;;;;;11.63;10.43;;;;;;;14.27;92.90;95124.56;5076612;28;20236;-74
2023/06/01 05:24:48;;;;;;;14.80;11.82;;;;;;;14.34;93.28;95124.66;5076250;28;20606;-74
2023/06/01 05:27:17;;;;;;;13.52;11.38;;;;;;;14.29;93.13;95124.97;5076870;28;20197;-74
2023/06/01 05:29:44;;;;;;;12.25;10.77;;;;;;;14.28;93.38;95119.81;5076307;28;20193;-73
2023/06/01 05:32:12;;;;;;;15.18;12.00;;;;;;;14.31;94.12;95117.09;5076437;28;20270;-73
2023/06/01 05:34:40;;;;;;;14.60;13.10;;;;;;;14.38;94.31;95119.16;5075773;28;20209;-73
2023/06/01 05:37:07;;;;;;;14.32;12.75;;;;;;;14.42;94.57;95126.34;5075631;28;20224;-73
2023/06/01 05:39:34;;;;;;;15.43;12.57;;;;;;;14.44;94.40;95121.22;5075593;28;20605;-73
2023/06/01 05:42:03;;;;;;;13.50;12.02;;;;;;;14.47;93.97;95122.44;5075993;28;20267;-73
2023/06/01 05:44:32;;;;;;;13.68;12.02;;;;;;;14.51;94.11;95123.31;5076274;28;20254;-73
2023/06/01 05:47:00;;;;;;;16.00;13.38;;;;;;;14.56;94.40;95124.97;5076080;28;20255;-73
2023/06/01 05:49:30;;;;;;;15.68;12.68;;;;;;;14.59;93.79;95118.66;5075474;28;20197;-73
2023/06/01 05:51:57;;;;;;;13.70;12.15;;;;;;;14.62;93.67;95126.22;5074989;28;20220;-73
2023/06/01 05:54:23;;;;;;;14.02;12.35;;;;;;;14.67;93.75;95125.91;5075919;28;20239;-73
2023/06/01 05:56:50;;;;;;;15.57;13.07;;;;;;;14.68;93.38;95119.97;5074579;28;20205;-73
2023/06/01 05:59:18;;;;;;;15.32;13.57;;;;;;;14.68;93.13;95125.53;5075886;28;20177;-74
2023/06/01 06:01:47;;;;;;;16.20;13.65;;;;;;;14.69;92.56;95126.31;5074883;28;20189;-73
2023/06/01 06:04:16;;;;;;;16.15;14.00;;;;;;;14.77;93.21;95129.97;5075860;28;20181;-73
2023/06/01 06:06:42;;;;;;;17.13;13.85;;;;;;;14.79;93.17;95125.66;5074606;28;20197;-73
2023/06/01 06:09:11;;;;;;;16.45;14.10;;;;;;;14.84;92.50;95125.31;5075444;28;20695;-74
2023/06/01 06:11:38;;;;;;;17.90;15.10;;;;;;;14.86;92.26;95124.94;5075315;28;20637;-73
2023/06/01 06:14:06;;;;;;;18.38;16.38;;;;;;;14.90;92.05;95132.13;5075293;28;20291;-74
2023/06/01 06:16:35;;;;;;;21.23;17.02;;;;;;;14.92;91.73;95128.97;5075698;28;20186;-74
2023/06/01 06:19:03;;;;;;;19.23;16.77;;;;;;;14.97;91.65;95130.63;5075331;28;20181;-74
2023/06/01 06:21:31;;;;;;;17.45;15.55;;;;;;;15.04;91.51;95123.16;5075378;28;20251;-74
2023/06/01 06:23:59;;;;;;;19.15;15.65;;;;;;;15.12;91.28;95124.84;5074833;28;20211;-74
2023/06/01 06:26:27;;;;;;;18.38;15.98;;;;;;;15.17;91.62;95123.69;5075485;28;20204;-73
2023/06/01 06:28:55;;;;;;;18.95;16.95;;;;;;;15.22;91.49;95128.13;5074401;28;20195;-74
2023/06/01 06:31:23;;;;;;;19.42;16.80;;;;;;;15.27;91.38;95131.34;5075815;28;20231;-73
2023/06/01 06:33:53;;;;;;;19.25;17.15;;;;;;;15.37;91.27;95132.63;5074723;28;20193;-73
2023/06/01 06:36:21;;;;;;;20.58;17.63;;;;;;;15.41;90.74;95133.47;5075613;28;20228;-74
2023/06/01 06:38:49;;;;;;;18.60;16.70;;;;;;;15.45;90.40;95127.94;5075308;28;20217;-74
2023/06/01 06:41:16;;;;;;;19.85;17.13;;;;;;;15.46;90.18;95132.31;5074456;28;20197;-73
2023/06/01 06:43:44;;;;;;;18.50;16.20;;;;;;;15.47;89.38;95122.78;5075027;28;20184;-73
2023/06/01 06:46:10;;;;;;;16.75;15.02;;;;;;;15.46;88.92;95115.63;5074996;28;20201;-73
2023/06/01 06:48:38;;;;;;;18.05;15.20;;;;;;;15.45;88.44;95120.38;5074035;28;20197;-73
2023/06/01 06:51:06;;;;;;;17.98;16.08;;;;;;;15.49;87.96;95121.22;5074150;28;20212;-73
2023/06/01 06:53:34;;;;;;;15.75;14.15;;;;;;;15.54;88.45;95117.28;5074540;28;20239;-73
2023/06/01 06:56:02;;;;;;;18.83;16.80;;;;;;;15.58;87.73;95113.38;5074142;28;20201;-73
2023/06/01 06:58:28;;;;;;;16.23;14.68;;;;;;;15.63;87.89;95126.91;5074925;28;20181;-74
2023/06/01 07:00:57;;;;;;;18.73;15.55;;;;;;;15.71;87.75;95110.31;5075196;28;20184;-74
2023/06/01 07:03:23;;;;;;;17.30;15.48;;;;;;;15.76;87.84;95121.91;5074831;28;20678;-72
2023/06/01 07:05:52;;;;;;;17.25;15.43;;;;;;;15.85;87.63;95129.91;5074965;28;20207;-74
2023/06/01 07:08:21;;;;;;;18.63;16.65;;;;;;;15.87;87.53;95116.41;5076952;28;20298;-72
2023/06/01 07:10:49;;;;;;;18.30;16.35;;;;;;;15.89;87.43;95119.59;5078032;28;20189;-73
2023/06/01 07:13:17;;;;;;;17.13;15.32;;;;;;;15.88;87.31;95116.03;5078089;28;20217;-74
2023/06/01 07:15:44;;;;;;;17.63;14.57;;;;;;;15.90;87.22;95115.63;5078351;28;20249;-73
2023/06/01 07:18:10;;;;;;;16.63;14.93;;;;;;;15.95;87.53;95114.47;5079120;28;20193;-74
2023/06/01 07:20:37;;;;;;;17.00;14.95;;;;;;;16.01;86.98;95116.53;5078012;28;20254;-73
2023/06/01 07:23:04;;;;;;;16.15;14.45;;;;;;;16.08;87.63;95113.75;5077814;28;20239;-75
2023/06/01 07:25:33;;;;;;;14.38;12.90;;;;;;;16.12;87.47;95113.78;5078210;28;20228;-75
2023/06/01 07:28:06;;;;;;;15.50;14.00;;;;;;;16.22;87.69;95110.28;5078240;28;20204;-74
2023/06/01 07:30:37;;;;;;;16.38;14.68;;;;;;;16.30;87.16;95111.94;5078248;28;20197;-73
2023/06/01 07:33:05;;;;;;;16.38;14.75;;;;;;;16.34;87.22;95107.19;5078690;28;20218;-73
2023/06/01 07:35:33;;;;;;;15.52;13.35;;;;;;;16.36;86.82;95102.00;5078778;28;20598;-75
2023/06/01 07:38:07;;;;;;;19.17;15.45;;;;;;;16.42;86.52;95102.44;5078830;28;20228;-74
2023/06/01 07:40:36;;;;;;;16.27;13.63;;;;;;;16.47;86.62;95098.50;5078204;28;20193;-74
2023/06/01 07:43:05;;;;;;;15.60;14.00;;;;;;;16.52;86.61;95098.94;5077833;28;20581;-75
2023/06/01 07:45:34;;;;;;;16.70;14.20;;;;;;;16.55;86.69;95098.13;5077878;28;20208;-73
2023/06/01 07:48:02;;;;;;;15.07;13.57;;;;;;;16.57;86.82;95092.19;5077678;28;20253;-75
2023/06/01 07:50:32;;;;;;;15.82;14.18;;;;;;;16.59;87.30;95096.19;5078374;28;20243;-74
2023/06/01 07:52:59;;;;;;;15.63;14.00;;;;;;;16.61;86.67;95093.78;5074493;28;20248;-74
2023/06/01 07:55:27;;;;;;;16.13;14.52;;;;;;;16.68;86.50;95087.47;5078431;28;20185;-74
2023/06/01 07:57:59;;;;;;;17.88;15.07;;;;;;;16.75;86.41;95086.72;5077538;28;20559;-74
2023/06/01 08:00:32;;;;;;;16.70;14.60;;;;;;;16.82;86.63;95095.09;5079011;28;20197;-74
2023/06/01 08:03:05;;;;;;;15.15;13.55;;;;;;;16.83;86.80;95091.13;5078132;28;20215;-74
2023/06/01 08:05:35;;;;;;;15.68;13.95;;;;;;;16.96;88.44;95086.00;5076886;28;20655;-74
2023/06/01 08:08:03;;;;;;;16.55;14.05;;;;;;;17.07;87.64;95086.81;5077236;28;20189;-74
2023/06/01 08:10:31;;;;;;;15.95;14.25;;;;;;;17.16;86.67;95092.00;5076983;28;20201;-74
2023/06/01 08:13:02;;;;;;;16.67;14.88;;;;;;;17.17;85.92;95088.81;5076644;28;20530;-74
2023/06/01 08:15:34;;;;;;;18.80;16.75;;;;;;;17.16;85.22;95090.00;5077941;28;20181;-74
2023/06/01 08:18:02;;;;;;;17.02;15.23;;;;;;;17.19;85.72;95086.44;5077619;28;20208;-74
2023/06/01 08:20:33;;;;;;;16.02;14.35;;;;;;;17.23;85.31;95087.25;5076655;28;20209;-74
2023/06/01 08:23:07;;;;;;;17.92;16.02;;;;;;;17.33;86.41;95089.25;5077380;28;20237;-74
2023/06/01 08:25:35;;;;;;;19.10;16.90;;;;;;;17.40;85.34;95077.31;5077798;28;20220;-74
2023/06/01 08:28:03;;;;;;;17.42;15.63;;;;;;;17.40;83.57;95079.31;5076978;28;20362;-74
2023/06/01 08:30:32;;;;;;;16.85;14.90;;;;;;;17.44;83.44;95072.53;5077788;28;20192;-75
2023/06/01 08:33:02;;;;;;;16.35;14.70;;;;;;;17.45;82.96;95071.34;5077301;28;20267;-74
2023/06/01 08:35:33;;;;;;;15.23;13.63;;;;;;;17.46;82.42;95067.34;5077399;28;20189;-74
2023/06/01 08:38:02;;;;;;;16.60;14.32;;;;;;;17.51;81.98;95064.19;5075990;28;20208;-74
2023/06/01 08:40:33;;;;;;;15.05;12.63;;;;;;;17.61;81.36;95067.34;5077556;28;20243;-74
2023/06/01 08:43:18;;;;;;;13.57;12.30;;;;;;;17.65;82.68;95068.19;5077514;28;20185;-74
2023/06/01 08:45:47;;;;;;;15.65;13.82;;;;;;;17.71;81.13;95058.19;5077337;28;20191;-75
2023/06/01 08:48:19;;;;;;;16.67;14.35;;;;;;;17.79;80.16;95059.81;5076144;28;20197;-74
2023/06/01 08:50:50;;;;;;;16.77;14.30;;;;;;;17.98;81.71;95051.03;5076462;28;20211;-74
2023/06/01 08:53:21;;;;;;;16.02;14.27;;;;;;;18.10;82.04;95055.38;5076297;28;20213;-74
2023/06/01 08:55:55;;;;;;;16.38;14.20;;;;;;;18.16;81.52;95051.00;5076239;28;20624;-74
2023/06/01 08:58:26;;;;;;;19.00;14.18;;;;;;;18.28;81.05;95044.97;5076190;28;20204;-74
2023/06/01 09:00:53;;;;;;;15.45;13.85;;;;;;;18.39;81.01;95046.94;5076230;28;20292;-74
2023/06/01 09:03:24;;;;;;;15.07;13.57;;;;;;;18.37;79.44;95043.75;5076688;28;20263;-74
2023/06/01 09:05:51;;;;;;;15.20;13.65;;;;;;;18.54;82.84;95034.50;5076617;28;20200;-74
2023/06/01 09:08:22;;;;;;;15.05;13.52;;;;;;;18.69;78.04;95041.63;5075711;28;20613;-74
2023/06/01 09:10:52;;;;;;;15.52;13.73;;;;;;;18.77;77.85;95039.63;5076648;28;20193;-74
2023/06/01 09:13:36;;;;;;;15.00;13.43;;;;;;;18.92;77.54;95041.16;5076823;28;20303;-74
2023/06/01 09:16:05;;;;;;;13.50;12.20;;;;;;;19.01;75.77;95040.69;5075485;28;20215;-74
2023/06/01 09:18:40;;;;;;;14.35;12.55;;;;;;;19.18;77.69;95031.41;5076639;28;20189;-74
2023/06/01 09:21:15;;;;;;;13.77;12.38;;;;;;;19.34;77.34;95035.69;5075752;28;20566;-74
2023/06/01 09:23:43;;;;;;;13.65;11.18;;;;;;;19.47;76.86;95036.81;5076676;28;20267;-74
2023/06/01 09:26:15;;;;;;;14.13;11.23;;;;;;;19.60;77.29;95026.69;5076334;28;20610;-75
2023/06/01 09:28:56;;;;;;;13.50;11.45;;;;;;;19.75;77.64;95027.41;5075603;28;20208;-75
2023/06/01 09:31:46;;;;;;;14.15;11.88;;;;;;;19.91;77.97;95022.06;5074437;28;20311;-75
2023/06/01 09:34:19;;;;;;;12.23;11.10;;;;;;;20.05;75.56;95023.94;5076447;28;20240;-75
2023/06/01 09:36:48;;;;;;;10.88;9.85;;;;;;;20.07;71.29;95021.50;5076560;28;20269;-75
2023/06/01 09:39:18;;;;;;;11.45;10.18;;;;;;;20.14;72.57;95020.63;5076314;28;20196;-74
2023/06/01 09:41:49;;;;;;;13.27;9.77;;;;;;;20.14;70.09;95018.63;5076257;28;20192;-75
2023/06/01 09:44:26;;;;;;;12.63;10.80;;;;;;;20.11;69.49;95015.88;5075277;28;20193;-75
2023/06/01 09:46:56;;;;;;;11.27;10.15;;;;;;;20.08;68.89;95003.50;5076152;28;20257;-74
2023/06/01 09:49:28;;;;;;;11.27;10.15;;;;;;;20.11;70.58;95008.25;5076137;28;20197;-74
2023/06/01 09:52:12;;;;;;;12.52;10.50;;;;;;;20.31;73.83;94996.47;5075269;28;20280;-74
2023/06/01 09:54:46;;;;;;;12.25;10.07;;;;;;;20.41;70.68;94999.13;5074849;28;20220;-75
2023/06/01 09:57:25;;;;;;;12.00;10.63;;;;;;;20.51;70.90;95003.03;5074933;28;20215;-74
2023/06/01 10:00:00;;;;;;;10.80;9.77;;;;;;;20.48;69.32;94991.84;5075570;28;20185;-74
2023/06/01 10:02:27;;;;;;;11.02;9.93;;;;;;;20.58;70.66;94997.34;5075791;28;20242;-75
2023/06/01 10:04:55;;;;;;;11.40;10.30;;;;;;;20.68;71.14;94995.63;5074820;28;20513;-74
2023/06/01 10:07:31;;;;;;;15.45;11.00;;;;;;;20.83;70.00;94985.81;5075790;28;20174;-75
2023/06/01 10:10:02;;;;;;;9.57;8.30;;;;;;;20.75;65.29;94992.72;5075046;28;20204;-74
2023/06/01 10:12:34;;;;;;;8.88;8.07;;;;;;;20.64;65.00;94986.47;5076040;28;20211;-74
2023/06/01 10:15:07;;;;;;;7.18;6.57;;;;;;;20.51;59.74;94996.63;5075071;28;20250;-75
2023/06/01 10:17:36;;;;;;;10.00;6.30;;;;;;;20.34;58.09;95001.22;5075912;28;20216;-75
2023/06/01 10:20:06;;;;;;;7.53;5.90;;;;;;;20.13;59.30;95005.84;5076131;28;20190;-76
2023/06/01 10:22:35;;;;;;;7.32;6.63;;;;;;;19.92;59.70;94998.47;5074670;28;20294;-75
2023/06/01 10:25:04;;;;;;;6.75;6.15;;;;;;;19.79;61.19;94993.78;5074782;28;20193;-75
2023/06/01 10:27:36;;;;;;;6.75;6.10;;;;;;;19.61;60.88;95005.94;5075766;28;20185;-74
2023/06/01 10:30:13;;;;;;;6.93;6.32;;;;;;;19.46;62.08;95005.25;5074954;28;20201;-74
2023/06/01 10:32:48;;;;;;;5.88;5.28;;;;;;;19.35;60.86;94998.13;5074863;28;20200;-74
2023/06/01 10:36:01;;;;;;;6.53;5.85;;;;;;;19.27;61.81;94988.22;5074888;28;20204;-75
2023/06/01 10:38:29;;;;;;;6.35;5.85;;;;;;;19.26;62.80;94995.03;5055100;28;20304;-75
2023/06/01 10:41:30;;;;;;;7.10;6.15;;;;;;;19.23;62.87;94991.84;5074296;28;20205;-75
2023/06/01 10:43:57;;;;;;;7.50;6.80;;;;;;;19.16;64.24;94999.47;5076041;28;20188;-75
2023/06/01 10:46:44;;;;;;;7.38;6.68;;;;;;;19.02;66.82;94985.59;5074533;28;20204;-76
2023/06/01 10:49:11;;;;;;;7.32;6.72;;;;;;;18.93;68.14;94988.84;5074670;28;20570;-75
2023/06/01 10:51:38;;;;;;;8.02;7.22;;;;;;;18.87;68.25;94977.31;5076768;28;20220;-74
2023/06/01 10:54:33;;;;;;;8.38;6.93;;;;;;;18.84;68.76;94974.53;5076598;28;20291;-75
2023/06/01 10:57:21;;;;;;;7.72;7.00;;;;;;;18.78;68.49;94962.22;5040474;28;20286;-74
2023/06/01 11:00:15;;;;;;;8.40;7.55;;;;;;;18.75;68.48;94961.03;5058241;28;20234;-74
2023/06/01 11:03:04;;;;;;;7.78;7.07;;;;;;;18.77;68.19;94953.00;5075889;28;20185;-74
2023/06/01 11:05:51;;;;;;;8.27;7.43;;;;;;;18.79;68.43;94955.41;5075466;28;20228;-76
2023/06/01 11:09:00;;;;;;;8.15;7.35;;;;;;;18.75;69.06;94949.84;5076051;28;20279;-74
2023/06/01 11:11:59;;;;;;;8.23;7.43;;;;;;;18.90;66.66;94944.97;5076056;28;20208;-74
2023/06/01 11:14:29;;;;;;;8.80;7.82;;;;;;;19.17;67.84;94945.16;5075326;28;20315;-74
2023/06/01 11:16:56;;;;;;;8.35;7.57;;;;;;;19.36;68.57;94953.00;5075586;28;20196;-74
2023/06/01 11:19:25;;;;;;;8.88;7.97;;;;;;;19.44;69.58;94950.94;5075968;28;20178;-74
2023/06/01 11:22:04;;;;;;;8.10;6.90;;;;;;;19.47;67.38;94945.31;5075727;28;20192;-74
2023/06/01 11:24:36;;;;;;;12.02;7.70;;;;;;;19.62;67.88;94937.59;5075477;28;20590;-74
2023/06/01 11:27:07;;;;;;;7.88;7.28;;;;;;;19.64;66.28;94929.56;5075775;28;20201;-75
2023/06/01 11:29:35;;;;;;;8.40;7.50;;;;;;;19.60;63.75;94920.38;5076363;28;20193;-75
2023/06/01 11:32:05;;;;;;;7.60;6.93;;;;;;;19.59;63.12;94920.81;5071033;28;20205;-74
2023/06/01 11:34:37;;;;;;;9.50;7.88;;;;;;;19.65;64.10;94917.19;5075172;28;20278;-74
2023/06/01 11:37:13;;;;;;;7.35;6.65;;;;;;;19.66;63.98;94918.78;5075876;28;20215;-75
2023/06/01 11:39:44;;;;;;;7.15;6.57;;;;;;;19.62;61.16;94918.00;5075264;28;20224;-75